sensor_id;sensor_type;location;lat;lon;timestamp;pressure;altitude;pressure_sealevel;temperature;humidity
50123;BME280;36021;48.670;6.184;2023-02-22T00:00:13;98882.03;;;8.87;100.00
50123;BME280;36021;48.670;6.184;2023-02-22T00:03:05;98885.81;;;8.96;100.00
50123;BME280;36021;48.670;6.184;2023-02-22T00:05:31;98883.25;;;9.05;100.00
50123;BME280;36021;48.670;6.184;2023-02-22T00:07:57;98879.66;;;9.09;100.00
50123;BME280;36021;48.670;6.184;2023-02-22T00:10:25;98870.84;;;9.07;100.00
50123;BME280;36021;48.670;6.184;2023-02-22T00:12:51;98872.50;;;9.08;100.00
50123;BME280;36021;48.670;6.184;2023-02-22T00:15:22;98872.00;;;9.06;100.00
50123;BME280;36021;48.670;6.184;2023-02-22T00:17:52;98875.25;;;9.08;100.00
50123;BME280;36021;48.670;6.184;2023-02-22T00:20:18;98870.13;;;8.97;100.00
50123;BME280;36021;48.670;6.184;2023-02-22T00:22:46;98872.69;;;8.88;100.00
50123;BME280;36021;48.670;6.184;2023-02-22T00:25:14;98870.44;;;8.90;100.00
50123;BME280;36021;48.670;6.184;2023-02-22T00:27:42;98871.16;;;8.72;100.00
50123;BME280;36021;48.670;6.184;2023-02-22T00:30:09;98868.50;;;8.62;100.00
50123;BME280;36021;48.670;6.184;2023-02-22T00:32:39;98866.06;;;8.55;100.00
50123;BME280;36021;48.670;6.184;2023-02-22T00:35:06;98864.22;;;8.46;100.00
50123;BME280;36021;48.670;6.184;2023-02-22T00:37:33;98861.50;;;8.41;100.00
50123;BME280;36021;48.670;6.184;2023-02-22T00:39:59;98860.44;;;8.36;100.00
50123;BME280;36021;48.670;6.184;2023-02-22T00:42:25;98858.00;;;8.30;100.00
50123;BME280;36021;48.670;6.184;2023-02-22T00:44:51;98862.22;;;8.07;100.00
50123;BME280;36021;48.670;6.184;2023-02-22T00:47:16;98858.34;;;8.13;100.00
50123;BME280;36021;48.670;6.184;2023-02-22T00:49:42;98863.31;;;8.11;100.00
50123;BME280;36021;48.670;6.184;2023-02-22T00:52:08;98859.78;;;8.01;100.00
50123;BME280;36021;48.670;6.184;2023-02-22T00:54:34;98857.97;;;7.81;100.00
50123;BME280;36021;48.670;6.184;2023-02-22T00:57:01;98870.09;;;7.65;100.00
50123;BME280;36021;48.670;6.184;2023-02-22T00:59:27;98862.97;;;7.64;100.00
50123;BME280;36021;48.670;6.184;2023-02-22T01:01:55;98862.03;;;7.88;100.00
50123;BME280;36021;48.670;6.184;2023-02-22T01:04:20;98865.28;;;8.01;100.00
50123;BME280;36021;48.670;6.184;2023-02-22T01:06:48;98855.69;;;7.93;100.00
50123;BME280;36021;48.670;6.184;2023-02-22T01:09:14;98858.91;;;8.05;100.00
50123;BME280;36021;48.670;6.184;2023-02-22T01:11:39;98862.84;;;7.94;100.00
50123;BME280;36021;48.670;6.184;2023-02-22T01:14:05;98853.63;;;7.65;100.00
50123;BME280;36021;48.670;6.184;2023-02-22T01:16:34;98853.88;;;7.78;100.00
50123;BME280;36021;48.670;6.184;2023-02-22T01:19:00;98852.94;;;7.98;100.00
50123;BME280;36021;48.670;6.184;2023-02-22T01:21:28;98854.50;;;8.09;100.00
50123;BME280;36021;48.670;6.184;2023-02-22T01:23:54;98853.44;;;8.10;100.00
50123;BME280;36021;48.670;6.184;2023-02-22T01:26:19;98855.28;;;8.20;100.00
50123;BME280;36021;48.670;6.184;2023-02-22T01:28:45;98849.13;;;7.89;100.00
50123;BME280;36021;48.670;6.184;2023-02-22T01:31:11;98846.19;;;7.70;100.00
50123;BME280;36021;48.670;6.184;2023-02-22T01:33:37;98844.84;;;7.63;100.00
50123;BME280;36021;48.670;6.184;2023-02-22T01:36:03;98843.19;;;7.67;100.00
50123;BME280;36021;48.670;6.184;2023-02-22T01:38:36;98848.59;;;7.87;100.00
50123;BME280;36021;48.670;6.184;2023-02-22T01:41:02;98851.03;;;7.88;100.00
50123;BME280;36021;48.670;6.184;2023-02-22T01:43:29;98840.94;;;7.84;100.00
50123;BME280;36021;48.670;6.184;2023-02-22T01:46:02;98846.44;;;7.79;100.00
50123;BME280;36021;48.670;6.184;2023-02-22T01:48:33;98844.28;;;7.66;100.00
50123;BME280;36021;48.670;6.184;2023-02-22T01:51:05;98843.81;;;7.49;100.00
50123;BME280;36021;48.670;6.184;2023-02-22T01:53:37;98840.31;;;7.28;100.00
50123;BME280;36021;48.670;6.184;2023-02-22T01:56:04;98835.13;;;7.16;100.00
50123;BME280;36021;48.670;6.184;2023-02-22T01:58:31;98836.22;;;7.25;100.00
50123;BME280;36021;48.670;6.184;2023-02-22T02:00:58;98840.63;;;7.16;100.00
50123;BME280;36021;48.670;6.184;2023-02-22T02:03:25;98836.75;;;7.27;100.00
50123;BME280;36021;48.670;6.184;2023-02-22T02:05:52;98838.38;;;7.39;100.00
50123;BME280;36021;48.670;6.184;2023-02-22T02:08:28;98828.53;;;7.32;100.00
50123;BME280;36021;48.670;6.184;2023-02-22T02:10:55;98830.13;;;7.49;100.00
50123;BME280;36021;48.670;6.184;2023-02-22T02:13:22;98829.53;;;7.57;100.00
50123;BME280;36021;48.670;6.184;2023-02-22T02:15:48;98819.13;;;7.59;100.00
50123;BME280;36021;48.670;6.184;2023-02-22T02:18:17;98823.34;;;7.26;100.00
50123;BME280;36021;48.670;6.184;2023-02-22T02:25:51;98818.16;;;7.09;100.00
50123;BME280;36021;48.670;6.184;2023-02-22T02:36:18;98817.00;;;7.36;100.00
50123;BME280;36021;48.670;6.184;2023-02-22T02:38:49;98815.63;;;7.28;100.00
50123;BME280;36021;48.670;6.184;2023-02-22T02:41:35;98813.16;;;7.26;100.00
50123;BME280;36021;48.670;6.184;2023-02-22T02:44:12;98811.78;;;7.39;100.00
50123;BME280;36021;48.670;6.184;2023-02-22T02:49:15;98812.09;;;7.22;100.00
50123;BME280;36021;48.670;6.184;2023-02-22T02:51:46;98806.03;;;7.30;100.00
50123;BME280;36021;48.670;6.184;2023-02-22T02:54:13;98802.72;;;7.33;100.00
50123;BME280;36021;48.670;6.184;2023-02-22T02:56:40;98807.69;;;7.31;100.00
50123;BME280;36021;48.670;6.184;2023-02-22T02:59:24;98798.94;;;7.29;100.00
50123;BME280;36021;48.670;6.184;2023-02-22T03:04:23;98801.69;;;7.19;100.00
50123;BME280;36021;48.670;6.184;2023-02-22T03:10:06;98799.50;;;7.11;100.00
50123;BME280;36021;48.670;6.184;2023-02-22T03:12:30;98797.00;;;7.20;100.00
50123;BME280;36021;48.670;6.184;2023-02-22T03:15:12;98797.84;;;7.10;100.00
50123;BME280;36021;48.670;6.184;2023-02-22T03:17:46;98797.09;;;7.00;100.00
50123;BME280;36021;48.670;6.184;2023-02-22T03:23:03;98792.38;;;7.10;100.00
50123;BME280;36021;48.670;6.184;2023-02-22T03:25:32;98795.97;;;7.01;100.00
50123;BME280;36021;48.670;6.184;2023-02-22T03:28:05;98794.03;;;7.11;100.00
50123;BME280;36021;48.670;6.184;2023-02-22T03:30:36;98789.63;;;7.10;100.00
50123;BME280;36021;48.670;6.184;2023-02-22T03:33:09;98790.22;;;7.02;100.00
50123;BME280;36021;48.670;6.184;2023-02-22T03:35:46;98789.97;;;6.99;100.00
50123;BME280;36021;48.670;6.184;2023-02-22T03:38:14;98794.84;;;7.07;100.00
50123;BME280;36021;48.670;6.184;2023-02-22T03:40:43;98785.53;;;7.08;100.00
50123;BME280;36021;48.670;6.184;2023-02-22T03:43:14;98788.28;;;7.08;100.00
50123;BME280;36021;48.670;6.184;2023-02-22T03:45:43;98787.47;;;6.97;100.00
50123;BME280;36021;48.670;6.184;2023-02-22T03:48:13;98780.13;;;6.93;100.00
50123;BME280;36021;48.670;6.184;2023-02-22T03:50:41;98776.78;;;7.01;100.00
50123;BME280;36021;48.670;6.184;2023-02-22T03:53:07;98774.06;;;6.96;100.00
50123;BME280;36021;48.670;6.184;2023-02-22T03:55:35;98782.53;;;7.04;100.00
50123;BME280;36021;48.670;6.184;2023-02-22T03:58:04;98781.41;;;7.10;100.00
50123;BME280;36021;48.670;6.184;2023-02-22T04:00:32;98778.69;;;7.15;100.00
50123;BME280;36021;48.670;6.184;2023-02-22T04:02:58;98772.13;;;7.16;100.00
50123;BME280;36021;48.670;6.184;2023-02-22T04:05:23;98778.72;;;7.05;100.00
50123;BME280;36021;48.670;6.184;2023-02-22T04:07:51;98769.44;;;6.96;100.00
50123;BME280;36021;48.670;6.184;2023-02-22T04:10:16;98774.63;;;7.03;100.00
50123;BME280;36021;48.670;6.184;2023-02-22T04:12:42;98772.69;;;7.03;100.00
50123;BME280;36021;48.670;6.184;2023-02-22T04:15:10;98770.19;;;7.07;100.00
50123;BME280;36021;48.670;6.184;2023-02-22T04:17:36;98772.13;;;7.11;100.00
50123;BME280;36021;48.670;6.184;2023-02-22T04:20:03;98771.03;;;7.07;100.00
50123;BME280;36021;48.670;6.184;2023-02-22T04:22:42;98761.47;;;6.95;100.00
50123;BME280;36021;48.670;6.184;2023-02-22T04:25:08;98766.19;;;6.64;100.00
50123;BME280;36021;48.670;6.184;2023-02-22T04:27:34;98770.31;;;6.56;100.00
50123;BME280;36021;48.670;6.184;2023-02-22T04:30:00;98773.31;;;6.45;100.00
50123;BME280;36021;48.670;6.184;2023-02-22T04:32:27;98762.91;;;6.57;100.00
50123;BME280;36021;48.670;6.184;2023-02-22T04:34:54;98763.19;;;6.55;100.00
50123;BME280;36021;48.670;6.184;2023-02-22T04:37:20;98761.81;;;6.53;100.00
50123;BME280;36021;48.670;6.184;2023-02-22T04:39:45;98765.09;;;6.70;100.00
50123;BME280;36021;48.670;6.184;2023-02-22T04:42:11;98759.34;;;6.76;100.00
50123;BME280;36021;48.670;6.184;2023-02-22T04:44:37;98756.84;;;6.85;100.00
50123;BME280;36021;48.670;6.184;2023-02-22T04:47:03;98753.84;;;6.87;100.00
50123;BME280;36021;48.670;6.184;2023-02-22T04:49:29;98753.25;;;6.95;100.00
50123;BME280;36021;48.670;6.184;2023-02-22T04:51:55;98752.97;;;6.91;100.00
50123;BME280;36021;48.670;6.184;2023-02-22T04:54:25;98758.72;;;6.95;100.00
50123;BME280;36021;48.670;6.184;2023-02-22T04:56:52;98756.00;;;7.00;100.00
50123;BME280;36021;48.670;6.184;2023-02-22T04:59:18;98752.44;;;6.89;100.00
50123;BME280;36021;48.670;6.184;2023-02-22T05:01:46;98756.56;;;6.92;100.00
50123;BME280;36021;48.670;6.184;2023-02-22T05:04:11;98748.09;;;6.83;100.00
50123;BME280;36021;48.670;6.184;2023-02-22T05:06:37;98742.88;;;6.87;100.00
50123;BME280;36021;48.670;6.184;2023-02-22T05:09:02;98741.53;;;6.79;100.00
50123;BME280;36021;48.670;6.184;2023-02-22T05:11:28;98745.09;;;6.69;100.00
50123;BME280;36021;48.670;6.184;2023-02-22T05:13:54;98742.88;;;6.71;100.00
50123;BME280;36021;48.670;6.184;2023-02-22T05:16:19;98739.91;;;6.58;100.00
50123;BME280;36021;48.670;6.184;2023-02-22T05:18:45;98743.22;;;6.50;100.00
50123;BME280;36021;48.670;6.184;2023-02-22T05:21:12;98747.84;;;6.49;100.00
50123;BME280;36021;48.670;6.184;2023-02-22T05:23:38;98739.38;;;6.36;100.00
50123;BME280;36021;48.670;6.184;2023-02-22T05:26:03;98753.06;;;6.51;100.00
50123;BME280;36021;48.670;6.184;2023-02-22T05:28:30;98738.00;;;6.48;100.00
50123;BME280;36021;48.670;6.184;2023-02-22T05:30:56;98739.94;;;6.48;100.00
50123;BME280;36021;48.670;6.184;2023-02-22T05:33:22;98745.94;;;6.19;100.00
50123;BME280;36021;48.670;6.184;2023-02-22T05:35:48;98742.13;;;6.36;100.00
50123;BME280;36021;48.670;6.184;2023-02-22T05:38:14;98741.56;;;6.39;100.00
50123;BME280;36021;48.670;6.184;2023-02-22T05:40:40;98739.94;;;6.38;100.00
50123;BME280;36021;48.670;6.184;2023-02-22T05:43:06;98748.69;;;6.40;100.00
50123;BME280;36021;48.670;6.184;2023-02-22T05:45:32;98742.09;;;6.46;100.00
50123;BME280;36021;48.670;6.184;2023-02-22T05:47:58;98748.13;;;6.53;100.00
50123;BME280;36021;48.670;6.184;2023-02-22T05:50:23;98743.22;;;6.29;100.00
50123;BME280;36021;48.670;6.184;2023-02-22T05:52:49;98741.03;;;6.26;100.00
50123;BME280;36021;48.670;6.184;2023-02-22T05:55:16;98745.41;;;6.43;100.00
50123;BME280;36021;48.670;6.184;2023-02-22T05:57:43;98733.91;;;6.46;100.00
50123;BME280;36021;48.670;6.184;2023-02-22T06:00:09;98734.97;;;6.45;100.00
50123;BME280;36021;48.670;6.184;2023-02-22T06:02:38;98733.34;;;6.54;100.00
50123;BME280;36021;48.670;6.184;2023-02-22T06:05:05;98729.25;;;6.56;100.00
50123;BME280;36021;48.670;6.184;2023-02-22T06:07:31;98737.72;;;6.55;100.00
50123;BME280;36021;48.670;6.184;2023-02-22T06:09:56;98732.53;;;6.33;100.00
50123;BME280;36021;48.670;6.184;2023-02-22T06:12:22;98736.91;;;6.29;100.00
50123;BME280;36021;48.670;6.184;2023-02-22T06:14:47;98740.47;;;6.09;100.00
50123;BME280;36021;48.670;6.184;2023-02-22T06:17:13;98735.03;;;6.24;100.00
50123;BME280;36021;48.670;6.184;2023-02-22T06:19:39;98732.81;;;6.37;100.00
50123;BME280;36021;48.670;6.184;2023-02-22T06:22:05;98736.38;;;6.42;100.00
50123;BME280;36021;48.670;6.184;2023-02-22T06:24:32;98735.84;;;6.15;100.00
50123;BME280;36021;48.670;6.184;2023-02-22T06:26:59;98735.56;;;6.16;100.00
50123;BME280;36021;48.670;6.184;2023-02-22T06:29:25;98748.13;;;6.07;100.00
50123;BME280;36021;48.670;6.184;2023-02-22T06:31:51;98738.81;;;6.03;100.00
50123;BME280;36021;48.670;6.184;2023-02-22T06:34:19;98738.84;;;5.98;100.00
50123;BME280;36021;48.670;6.184;2023-02-22T06:36:46;98751.97;;;6.06;100.00
50123;BME280;36021;48.670;6.184;2023-02-22T06:39:13;98760.19;;;6.16;100.00
50123;BME280;36021;48.670;6.184;2023-02-22T06:41:40;98769.19;;;6.32;100.00
50123;BME280;36021;48.670;6.184;2023-02-22T06:44:07;98770.59;;;6.40;100.00
50123;BME280;36021;48.670;6.184;2023-02-22T06:46:32;98784.81;;;6.52;100.00
50123;BME280;36021;48.670;6.184;2023-02-22T06:48:58;98777.69;;;6.61;100.00
50123;BME280;36021;48.670;6.184;2023-02-22T06:51:24;98777.13;;;6.59;100.00
50123;BME280;36021;48.670;6.184;2023-02-22T06:53:50;98766.75;;;6.10;100.00
50123;BME280;36021;48.670;6.184;2023-02-22T06:56:19;98774.94;;;5.95;100.00
50123;BME280;36021;48.670;6.184;2023-02-22T06:58:44;98761.25;;;5.95;100.00
50123;BME280;36021;48.670;6.184;2023-02-22T07:01:10;98766.19;;;6.08;100.00
50123;BME280;36021;48.670;6.184;2023-02-22T07:03:36;98766.19;;;6.23;100.00
50123;BME280;36021;48.670;6.184;2023-02-22T07:06:02;98758.81;;;6.19;100.00
50123;BME280;36021;48.670;6.184;2023-02-22T07:08:28;98765.09;;;6.19;100.00
50123;BME280;36021;48.670;6.184;2023-02-22T07:10:54;98765.66;;;6.26;100.00
50123;BME280;36021;48.670;6.184;2023-02-22T07:13:20;98765.38;;;6.38;100.00
50123;BME280;36021;48.670;6.184;2023-02-22T07:15:45;98760.72;;;6.59;100.00
50123;BME280;36021;48.670;6.184;2023-02-22T07:18:11;98760.16;;;6.77;100.00
50123;BME280;36021;48.670;6.184;2023-02-22T07:20:37;98751.63;;;6.89;100.00
50123;BME280;36021;48.670;6.184;2023-02-22T07:23:03;98756.78;;;7.00;100.00
50123;BME280;36021;48.670;6.184;2023-02-22T07:25:29;98745.81;;;7.10;100.00
50123;BME280;36021;48.670;6.184;2023-02-22T07:27:55;98755.91;;;7.25;100.00
50123;BME280;36021;48.670;6.184;2023-02-22T07:30:21;98750.13;;;7.31;100.00
50123;BME280;36021;48.670;6.184;2023-02-22T07:32:53;98761.00;;;7.47;100.00
50123;BME280;36021;48.670;6.184;2023-02-22T07:35:27;98758.53;;;7.50;100.00
50123;BME280;36021;48.670;6.184;2023-02-22T07:37:53;98757.38;;;7.61;100.00
50123;BME280;36021;48.670;6.184;2023-02-22T07:40:19;98752.38;;;7.73;100.00
50123;BME280;36021;48.670;6.184;2023-02-22T07:45:26;98755.03;;;7.88;100.00
50123;BME280;36021;48.670;6.184;2023-02-22T07:47:52;98759.88;;;8.02;100.00
50123;BME280;36021;48.670;6.184;2023-02-22T07:50:19;98752.41;;;8.12;100.00
50123;BME280;36021;48.670;6.184;2023-02-22T07:52:48;98750.69;;;8.21;100.00
50123;BME280;36021;48.670;6.184;2023-02-22T07:55:15;98755.03;;;8.32;100.00
50123;BME280;36021;48.670;6.184;2023-02-22T07:57:42;98753.28;;;8.42;100.00
50123;BME280;36021;48.670;6.184;2023-02-22T08:00:08;98760.38;;;8.48;100.00
50123;BME280;36021;48.670;6.184;2023-02-22T08:02:39;98753.94;;;8.28;100.00
50123;BME280;36021;48.670;6.184;2023-02-22T08:05:05;98755.69;;;8.53;100.00
50123;BME280;36021;48.670;6.184;2023-02-22T08:07:32;98749.22;;;8.68;100.00
50123;BME280;36021;48.670;6.184;2023-02-22T08:09:57;98755.00;;;8.95;100.00
50123;BME280;36021;48.670;6.184;2023-02-22T08:12:23;98745.25;;;9.31;100.00
50123;BME280;36021;48.670;6.184;2023-02-22T08:14:48;98743.09;;;9.71;100.00
50123;BME280;36021;48.670;6.184;2023-02-22T08:17:14;98744.31;;;10.21;100.00
50123;BME280;36021;48.670;6.184;2023-02-22T08:19:39;98743.50;;;10.85;100.00
50123;BME280;36021;48.670;6.184;2023-02-22T08:22:05;98738.53;;;11.41;100.00
50123;BME280;36021;48.670;6.184;2023-02-22T08:24:30;98741.00;;;11.70;100.00
50123;BME280;36021;48.670;6.184;2023-02-22T08:26:57;98736.63;;;11.91;100.00
50123;BME280;36021;48.670;6.184;2023-02-22T08:29:22;98740.16;;;12.41;100.00
50123;BME280;36021;48.670;6.184;2023-02-22T08:31:51;98732.13;;;13.37;100.00
50123;BME280;36021;48.670;6.184;2023-02-22T08:34:20;98734.09;;;14.36;100.00
50123;BME280;36021;48.670;6.184;2023-02-22T08:36:46;98724.75;;;14.67;100.00
50123;BME280;36021;48.670;6.184;2023-02-22T08:39:11;98724.91;;;15.25;100.00
50123;BME280;36021;48.670;6.184;2023-02-22T08:41:37;98728.19;;;16.15;100.00
50123;BME280;36021;48.670;6.184;2023-02-22T08:44:02;98719.53;;;17.03;100.00
50123;BME280;36021;48.670;6.184;2023-02-22T08:46:28;98712.66;;;17.82;100.00
50123;BME280;36021;48.670;6.184;2023-02-22T08:48:53;98724.75;;;17.86;100.00
50123;BME280;36021;48.670;6.184;2023-02-22T08:51:19;98723.78;;;18.58;100.00
50123;BME280;36021;48.670;6.184;2023-02-22T08:53:45;98716.09;;;19.26;100.00
50123;BME280;36021;48.670;6.184;2023-02-22T08:56:12;98722.38;;;18.12;100.00
50123;BME280;36021;48.670;6.184;2023-02-22T08:58:39;98726.19;;;18.32;100.00
50123;BME280;36021;48.670;6.184;2023-02-22T09:01:04;98720.31;;;17.97;100.00
50123;BME280;36021;48.670;6.184;2023-02-22T09:03:30;98717.78;;;17.92;100.00
50123;BME280;36021;48.670;6.184;2023-02-22T09:05:55;98728.72;;;17.15;100.00
50123;BME280;36021;48.670;6.184;2023-02-22T09:08:21;98726.91;;;16.75;100.00
50123;BME280;36021;48.670;6.184;2023-02-22T09:10:48;98718.47;;;17.64;100.00
50123;BME280;36021;48.670;6.184;2023-02-22T09:13:14;98712.81;;;18.93;100.00
50123;BME280;36021;48.670;6.184;2023-02-22T09:15:39;98713.34;;;19.42;100.00
50123;BME280;36021;48.670;6.184;2023-02-22T09:18:06;98712.66;;;20.68;100.00
50123;BME280;36021;48.670;6.184;2023-02-22T09:20:33;98706.78;;;20.54;100.00
50123;BME280;36021;48.670;6.184;2023-02-22T09:23:00;98706.94;;;22.47;100.00
50123;BME280;36021;48.670;6.184;2023-02-22T09:25:28;98703.97;;;23.83;100.00
50123;BME280;36021;48.670;6.184;2023-02-22T09:27:54;98709.16;;;24.32;100.00
50123;BME280;36021;48.670;6.184;2023-02-22T09:30:24;98712.19;;;21.05;100.00
50123;BME280;36021;48.670;6.184;2023-02-22T09:32:50;98712.00;;;19.86;100.00
50123;BME280;36021;48.670;6.184;2023-02-22T09:35:16;98709.59;;;20.54;100.00
50123;BME280;36021;48.670;6.184;2023-02-22T09:37:42;98714.88;;;20.40;100.00
50123;BME280;36021;48.670;6.184;2023-02-22T09:40:16;98714.28;;;19.81;100.00
50123;BME280;36021;48.670;6.184;2023-02-22T09:42:52;98713.22;;;19.38;100.00
50123;BME280;36021;48.670;6.184;2023-02-22T09:45:26;98711.69;;;18.82;100.00
50123;BME280;36021;48.670;6.184;2023-02-22T09:47:58;98716.03;;;18.51;100.00
50123;BME280;36021;48.670;6.184;2023-02-22T09:50:28;98715.34;;;18.30;100.00
50123;BME280;36021;48.670;6.184;2023-02-22T09:52:58;98721.38;;;17.68;100.00
50123;BME280;36021;48.670;6.184;2023-02-22T09:55:39;98721.19;;;16.50;100.00
50123;BME280;36021;48.670;6.184;2023-02-22T09:58:26;98718.13;;;16.85;100.00
50123;BME280;36021;48.670;6.184;2023-02-22T10:01:08;98718.81;;;16.82;100.00
50123;BME280;36021;48.670;6.184;2023-02-22T10:03:46;98721.81;;;15.64;100.00
50123;BME280;36021;48.670;6.184;2023-02-22T10:06:13;98722.63;;;14.81;100.00
50123;BME280;36021;48.670;6.184;2023-02-22T10:08:40;98729.06;;;15.02;100.00
50123;BME280;36021;48.670;6.184;2023-02-22T10:11:33;98733.41;;;14.56;100.00
50123;BME280;36021;48.670;6.184;2023-02-22T10:14:13;98729.97;;;14.85;100.00
50123;BME280;36021;48.670;6.184;2023-02-22T10:16:48;98734.56;;;15.66;100.00
50123;BME280;36021;48.670;6.184;2023-02-22T10:19:30;98729.28;;;16.43;100.00
50123;BME280;36021;48.670;6.184;2023-02-22T10:22:06;98732.69;;;15.78;100.00
50123;BME280;36021;48.670;6.184;2023-02-22T10:27:18;98726.16;;;16.03;100.00
50123;BME280;36021;48.670;6.184;2023-02-22T10:29:52;98734.53;;;15.36;100.00
50123;BME280;36021;48.670;6.184;2023-02-22T10:32:20;98731.13;;;14.50;100.00
50123;BME280;36021;48.670;6.184;2023-02-22T10:34:48;98733.25;;;14.27;100.00
50123;BME280;36021;48.670;6.184;2023-02-22T10:39:47;98725.25;;;15.70;100.00
50123;BME280;36021;48.670;6.184;2023-02-22T10:42:12;98724.50;;;15.15;100.00
50123;BME280;36021;48.670;6.184;2023-02-22T10:44:38;98725.03;;;15.75;100.00
50123;BME280;36021;48.670;6.184;2023-02-22T10:47:06;98728.16;;;15.74;100.00
50123;BME280;36021;48.670;6.184;2023-02-22T10:49:35;98733.69;;;14.98;100.00
50123;BME280;36021;48.670;6.184;2023-02-22T10:52:05;98728.81;;;14.86;100.00
50123;BME280;36021;48.670;6.184;2023-02-22T10:54:39;98733.03;;;15.01;100.00
50123;BME280;36021;48.670;6.184;2023-02-22T10:57:05;98732.41;;;15.33;100.00
50123;BME280;36021;48.670;6.184;2023-02-22T11:01:58;98736.34;;;14.69;100.00
50123;BME280;36021;48.670;6.184;2023-02-22T11:04:23;98733.56;;;14.77;100.00
50123;BME280;36021;48.670;6.184;2023-02-22T11:07:11;98744.00;;;14.80;100.00
50123;BME280;36021;48.670;6.184;2023-02-22T11:09:49;98731.78;;;14.64;100.00
50123;BME280;36021;48.670;6.184;2023-02-22T11:12:17;98728.16;;;14.81;100.00
50123;BME280;36021;48.670;6.184;2023-02-22T11:14:43;98728.44;;;15.05;100.00
50123;BME280;36021;48.670;6.184;2023-02-22T11:17:08;98728.06;;;15.15;100.00
50123;BME280;36021;48.670;6.184;2023-02-22T11:19:37;98731.22;;;15.05;100.00
50123;BME280;36021;48.670;6.184;2023-02-22T11:22:10;98729.94;;;14.94;100.00
50123;BME280;36021;48.670;6.184;2023-02-22T11:24:49;98726.69;;;14.92;100.00
50123;BME280;36021;48.670;6.184;2023-02-22T11:27:48;98723.97;;;14.57;100.00
50123;BME280;36021;48.670;6.184;2023-02-22T11:32:51;98723.78;;;14.28;100.00
50123;BME280;36021;48.670;6.184;2023-02-22T11:37:52;98727.22;;;13.99;100.00
50123;BME280;36021;48.670;6.184;2023-02-22T11:40:19;98730.91;;;13.69;100.00
50123;BME280;36021;48.670;6.184;2023-02-22T11:42:47;98731.53;;;13.57;100.00
50123;BME280;36021;48.670;6.184;2023-02-22T11:47:48;98722.34;;;13.40;100.00
50123;BME280;36021;48.670;6.184;2023-02-22T11:55:50;98718.19;;;13.68;100.00
50123;BME280;36021;48.670;6.184;2023-02-22T12:00:56;98710.03;;;13.72;100.00
50123;BME280;36021;48.670;6.184;2023-02-22T12:06:23;98718.81;;;13.56;100.00
50123;BME280;36021;48.670;6.184;2023-02-22T12:09:02;98716.53;;;13.58;100.00
50123;BME280;36021;48.670;6.184;2023-02-22T12:16:54;98710.97;;;13.41;100.00
50123;BME280;36021;48.670;6.184;2023-02-22T12:19:30;98712.19;;;13.27;100.00
50123;BME280;36021;48.670;6.184;2023-02-22T12:22:02;98710.44;;;13.39;100.00
50123;BME280;36021;48.670;6.184;2023-02-22T12:24:30;98709.03;;;13.50;100.00
50123;BME280;36021;48.670;6.184;2023-02-22T12:27:00;98714.34;;;13.38;100.00
50123;BME280;36021;48.670;6.184;2023-02-22T12:29:33;98720.97;;;13.20;100.00
50123;BME280;36021;48.670;6.184;2023-02-22T12:32:07;98714.94;;;13.18;100.00
50123;BME280;36021;48.670;6.184;2023-02-22T12:37:29;98711.31;;;13.09;100.00
50123;BME280;36021;48.670;6.184;2023-02-22T12:42:44;98717.72;;;12.96;100.00
50123;BME280;36021;48.670;6.184;2023-02-22T12:45:12;98717.22;;;12.94;100.00
50123;BME280;36021;48.670;6.184;2023-02-22T12:47:52;98715.47;;;12.98;100.00
50123;BME280;36021;48.670;6.184;2023-02-22T12:50:23;98710.94;;;13.02;100.00
50123;BME280;36021;48.670;6.184;2023-02-22T12:52:56;98711.81;;;13.11;100.00
50123;BME280;36021;48.670;6.184;2023-02-22T12:55:23;98703.88;;;13.18;100.00
50123;BME280;36021;48.670;6.184;2023-02-22T13:00:24;98712.94;;;13.10;100.00
50123;BME280;36021;48.670;6.184;2023-02-22T13:03:25;98712.66;;;13.20;100.00
50123;BME280;36021;48.670;6.184;2023-02-22T13:05:42;98711.03;;;13.19;100.00
50123;BME280;36021;48.670;6.184;2023-02-22T13:10:51;98703.53;;;13.11;100.00
50123;BME280;36021;48.670;6.184;2023-02-22T13:23:55;98716.75;;;12.92;100.00
50123;BME280;36021;48.670;6.184;2023-02-22T13:27:14;98718.47;;;12.79;100.00
50123;BME280;36021;48.670;6.184;2023-02-22T13:52:42;98708.13;;;12.63;100.00
50123;BME280;36021;48.670;6.184;2023-02-22T13:55:17;98707.78;;;12.64;100.00
50123;BME280;36021;48.670;6.184;2023-02-22T13:57:45;98707.50;;;12.66;100.00
50123;BME280;36021;48.670;6.184;2023-02-22T14:02:59;98699.19;;;12.66;100.00
50123;BME280;36021;48.670;6.184;2023-02-22T14:08:07;98692.06;;;12.73;100.00
50123;BME280;36021;48.670;6.184;2023-02-22T14:10:59;98698.56;;;12.69;100.00
50123;BME280;36021;48.670;6.184;2023-02-22T14:13:26;98699.22;;;12.74;100.00
50123;BME280;36021;48.670;6.184;2023-02-22T14:18:30;98696.94;;;12.76;100.00
50123;BME280;36021;48.670;6.184;2023-02-22T14:23:40;98698.47;;;12.29;100.00
50123;BME280;36021;48.670;6.184;2023-02-22T14:31:27;98707.72;;;12.11;100.00
50123;BME280;36021;48.670;6.184;2023-02-22T14:36:31;98711.69;;;11.96;100.00
50123;BME280;36021;48.670;6.184;2023-02-22T14:39:02;98712.09;;;11.90;100.00
50123;BME280;36021;48.670;6.184;2023-02-22T14:41:29;98710.50;;;11.75;100.00
50123;BME280;36021;48.670;6.184;2023-02-22T14:43:55;98712.97;;;11.77;100.00
50123;BME280;36021;48.670;6.184;2023-02-22T14:46:24;98708.69;;;11.71;100.00
50123;BME280;36021;48.670;6.184;2023-02-22T14:48:52;98709.91;;;11.65;100.00
50123;BME280;36021;48.670;6.184;2023-02-22T14:51:24;98714.47;;;11.56;100.00
50123;BME280;36021;48.670;6.184;2023-02-22T14:56:27;98715.63;;;11.55;100.00
50123;BME280;36021;48.670;6.184;2023-02-22T15:01:33;98717.56;;;11.54;100.00
50123;BME280;36021;48.670;6.184;2023-02-22T15:06:43;98712.13;;;11.49;100.00
50123;BME280;36021;48.670;6.184;2023-02-22T15:11:37;98714.41;;;11.47;100.00
50123;BME280;36021;48.670;6.184;2023-02-22T15:14:11;98712.66;;;11.51;100.00